Terminal Aerodrome Forecast
Issued by NWS Charleston, WV

Home | Current Version | Previous Version | Text Only | Print | Product List | Glossary On
Versions: 1 2 3 4 5 6 7 8 9 10 11 12 13 14 15 16 17 18 19 20 21
000
FTUS41 KRLX 261500 AAB
TAFCRW
TAF AMD
KCRW 261501Z 2615/2712 00000KT 1SM -SN BR VV003
     FM261800 00000KT P6SM OVC020
     FM262300 00000KT P6SM BKN030
     FM270400 00000KT P6SM BKN030=

USA.gov is the U.S. government's official web portal to all federal, state and local government web resources and services.